createdAt,value
2018-11-22T00:02:39.183Z,72.80
2018-11-22T00:05:17.533Z,73.10
2018-11-22T00:07:58.958Z,72.80
2018-11-22T00:10:46.116Z,73.00
2018-11-22T00:13:26.716Z,71.30
2018-11-22T00:16:13.845Z,72.10
2018-11-22T00:19:04.664Z,72.10
2018-11-22T00:21:52.159Z,71.90
2018-11-22T00:24:32.624Z,71.40
2018-11-22T00:27:19.778Z,72.20
2018-11-22T00:30:00.609Z,73.50
2018-11-22T00:32:47.784Z,73.30
2018-11-22T00:35:28.094Z,72.70
2018-11-22T00:38:15.226Z,73.10
2018-11-22T00:40:55.429Z,73.50
2018-11-22T00:43:42.521Z,73.00
2018-11-22T00:46:23.017Z,73.80
2018-11-22T00:49:10.191Z,74.60
2018-11-22T00:51:37.870Z,73.90
2018-11-22T00:54:25.078Z,73.90
2018-11-22T00:57:12.263Z,73.10
2018-11-22T00:59:52.681Z,76.10
2018-11-22T01:02:32.669Z,75.10
2018-11-22T01:05:20.877Z,75.00
2018-11-22T01:08:01.396Z,75.20
2018-11-22T01:10:48.556Z,73.90
2018-11-22T01:13:29.074Z,75.20
2018-11-22T01:16:16.292Z,74.70
2018-11-22T01:19:03.957Z,73.80
2018-11-22T01:21:43.962Z,75.70
2018-11-22T01:24:31.155Z,76.00
2018-11-22T01:27:11.474Z,74.90
2018-11-22T01:29:58.644Z,76.00
2018-11-22T01:35:20.453Z,75.10
2018-11-22T01:38:07.660Z,74.80
2018-11-22T01:40:47.621Z,74.10
2018-11-22T01:43:34.811Z,74.40
2018-11-22T01:46:15.368Z,73.90
2018-11-22T01:49:02.930Z,73.80
2018-11-22T01:51:50.148Z,74.30
2018-11-22T01:54:30.819Z,73.90
2018-11-22T01:57:18.015Z,75.50
2018-11-22T02:00:27.058Z,73.90
2018-11-22T02:03:14.210Z,74.60
2018-11-22T02:05:55.280Z,74.00
2018-11-22T02:08:42.487Z,75.50
2018-11-22T02:11:22.601Z,74.90
2018-11-22T02:14:10.298Z,73.90
2018-11-22T02:16:52.041Z,74.00
2018-11-22T02:19:39.245Z,74.20
2018-11-22T02:22:19.531Z,74.30
2018-11-22T02:25:07.507Z,75.00
2018-11-22T02:27:48.209Z,74.50
2018-11-22T02:30:35.377Z,75.80
2018-11-22T02:33:15.827Z,75.60
2018-11-22T02:36:02.971Z,75.20
2018-11-22T02:38:42.860Z,74.00
2018-11-22T02:41:29.990Z,73.20
2018-11-22T02:44:10.078Z,75.20
2018-11-22T02:46:57.455Z,74.80
2018-11-22T02:49:37.912Z,75.60
2018-11-22T02:52:25.124Z,75.40
2018-11-22T02:55:05.622Z,74.00
2018-11-22T02:57:52.797Z,74.10
2018-11-22T03:00:37.319Z,74.70
2018-11-22T03:03:24.439Z,75.40
2018-11-22T03:06:04.547Z,73.70
2018-11-22T03:11:39.270Z,75.00
2018-11-22T03:14:19.588Z,74.80
2018-11-22T03:17:06.800Z,75.00
2018-11-22T03:19:46.950Z,74.10
2018-11-22T03:22:34.354Z,74.00
2018-11-22T03:27:57.257Z,75.40
2018-11-22T03:30:44.436Z,73.70
2018-11-22T03:33:24.516Z,75.20
2018-11-22T03:36:11.662Z,75.00
2018-11-22T03:38:51.994Z,73.80
2018-11-22T03:41:39.133Z,73.80
2018-11-22T03:44:19.300Z,74.90
2018-11-22T03:46:46.976Z,74.40
2018-11-22T03:49:34.087Z,74.70
2018-11-22T03:52:14.579Z,74.70
2018-11-22T03:55:01.786Z,73.80
2018-11-22T03:57:42.532Z,74.70
2018-11-22T04:00:29.998Z,74.90
2018-11-22T04:03:10.620Z,74.00
2018-11-22T04:05:57.804Z,74.30
2018-11-22T04:08:37.973Z,74.30
2018-11-22T04:11:25.181Z,74.40
2018-11-22T04:14:05.243Z,75.60
2018-11-22T04:16:52.404Z,76.10
2018-11-22T04:19:32.470Z,74.70
2018-11-22T04:22:19.612Z,73.80
2018-11-22T04:24:59.871Z,74.10
2018-11-22T04:27:47.156Z,74.80
2018-11-22T04:30:31.190Z,74.70
2018-11-22T04:33:18.400Z,76.70
2018-11-22T04:35:58.891Z,75.00
2018-11-22T04:38:46.097Z,76.30
2018-11-22T04:41:26.000Z,73.90
2018-11-22T04:44:13.189Z,74.70
2018-11-22T04:46:53.234Z,75.00
2018-11-22T04:49:40.393Z,74.70
2018-11-22T04:52:27.521Z,74.50
2018-11-22T04:55:08.394Z,75.20
2018-11-22T04:57:58.031Z,75.40
2018-11-22T05:00:35.552Z,76.40
2018-11-22T05:03:22.718Z,75.10
2018-11-22T05:06:02.878Z,75.30
2018-11-22T05:08:50.073Z,75.30
2018-11-22T05:11:37.271Z,74.80
2018-11-22T05:14:24.423Z,76.50
2018-11-22T05:17:04.510Z,77.30
2018-11-22T05:19:51.720Z,75.20
2018-11-22T05:22:31.971Z,75.60
2018-11-22T05:25:19.156Z,76.50
2018-11-22T05:27:59.343Z,74.60
2018-11-22T05:30:46.801Z,74.70
2018-11-22T05:33:26.932Z,75.50
2018-11-22T05:36:14.105Z,74.00
2018-11-22T05:38:54.291Z,72.90
2018-11-22T05:41:43.835Z,74.90
2018-11-22T05:44:22.171Z,75.20
2018-11-22T05:47:09.317Z,74.60
2018-11-22T05:49:49.239Z,73.00
2018-11-22T05:52:36.419Z,71.60
2018-11-22T05:55:17.388Z,74.00
2018-11-22T05:58:29.887Z,73.10
2018-11-22T06:01:10.192Z,73.70
2018-11-22T06:03:57.359Z,71.80
2018-11-22T06:06:37.600Z,71.10
2018-11-22T06:09:24.768Z,72.40
2018-11-22T06:12:05.014Z,71.10
2018-11-22T06:14:52.185Z,71.90
2018-11-22T06:17:32.584Z,72.50
2018-11-22T06:20:21.137Z,71.70
2018-11-22T06:23:01.528Z,72.40
2018-11-22T06:25:49.588Z,72.50
2018-11-22T06:28:32.756Z,73.00
2018-11-22T06:31:42.678Z,72.20
2018-11-22T06:34:24.308Z,71.30
2018-11-22T06:37:10.410Z,71.90
2018-11-22T06:39:50.902Z,71.70
2018-11-22T06:42:38.592Z,71.60
2018-11-22T06:45:20.477Z,70.40
2018-11-22T06:48:07.655Z,72.00
2018-11-22T06:50:48.100Z,70.70
2018-11-22T06:53:35.542Z,69.60
2018-11-22T06:56:15.457Z,68.30
2018-11-22T07:01:48.861Z,70.00
2018-11-22T07:04:38.060Z,68.60
2018-11-22T07:07:17.998Z,67.70
2018-11-22T07:10:07.189Z,68.80
2018-11-22T07:12:47.758Z,67.60
2018-11-22T12:17:52.154Z,57.40
2018-11-22T12:20:20.961Z,57.40
2018-11-22T12:22:50.482Z,57.40
2018-11-22T12:25:20.041Z,57.40
2018-11-22T12:27:49.542Z,57.40
2018-11-22T12:30:19.879Z,57.40
2018-11-22T12:32:53.745Z,57.40
2018-11-22T12:35:27.905Z,57.40
2018-11-22T12:38:01.597Z,57.50
2018-11-22T12:40:29.853Z,57.40
2018-11-22T12:42:59.568Z,57.40
2018-11-22T12:45:52.949Z,57.40
2018-11-22T12:48:21.165Z,57.50
2018-11-22T12:50:49.294Z,57.40
2018-11-22T12:53:17.473Z,57.20
2018-11-22T12:55:45.868Z,57.40
2018-11-22T12:58:14.025Z,57.40
2018-11-22T13:00:42.232Z,57.40
2018-11-22T13:03:10.409Z,57.40
2018-11-22T13:05:38.805Z,57.40
2018-11-22T13:08:06.999Z,57.40
2018-11-22T13:10:35.182Z,57.40
2018-11-22T13:13:03.373Z,57.40
2018-11-22T13:15:31.547Z,57.40
2018-11-22T13:17:59.753Z,57.40
2018-11-22T13:20:27.908Z,57.40
2018-11-22T13:22:56.071Z,57.40
2018-11-22T13:25:24.568Z,57.40
2018-11-22T13:27:52.759Z,57.40
2018-11-22T13:30:23.189Z,57.40
2018-11-22T13:32:52.048Z,57.40
2018-11-22T13:35:52.938Z,57.40
2018-11-22T13:38:21.091Z,57.40
2018-11-22T13:40:49.311Z,57.40
2018-11-22T13:43:17.494Z,57.40
2018-11-22T13:46:05.415Z,57.40
2018-11-22T13:48:33.009Z,57.30
2018-11-22T13:51:01.197Z,57.20
2018-11-22T13:53:29.372Z,57.20
2018-11-22T13:55:57.543Z,57.20
2018-11-22T13:58:25.753Z,57.20
2018-11-22T14:00:53.873Z,57.20
2018-11-22T14:03:22.144Z,57.20
2018-11-22T14:05:50.438Z,57.20
2018-11-22T14:08:18.611Z,57.00
2018-11-22T14:10:47.920Z,57.00
2018-11-22T14:13:16.014Z,57.00
2018-11-22T14:15:44.349Z,57.00
2018-11-22T14:18:12.600Z,56.90
2018-11-22T14:20:40.788Z,56.90
2018-11-22T14:23:08.980Z,57.40
2018-11-22T14:25:37.224Z,57.00
2018-11-22T14:28:05.536Z,57.00
2018-11-22T14:30:34.788Z,57.00
2018-11-22T14:33:02.965Z,57.00
2018-11-22T14:35:31.111Z,57.00
2018-11-22T14:37:59.247Z,57.00
2018-11-22T14:40:28.785Z,57.10
2018-11-22T14:42:58.033Z,57.10
2018-11-22T14:45:40.272Z,56.90
2018-11-22T14:48:08.423Z,57.00
2018-11-22T14:50:43.094Z,56.90
2018-11-22T14:53:16.780Z,57.60
2018-11-22T14:55:45.139Z,57.50
2018-11-22T14:58:13.215Z,57.60
2018-11-22T15:00:41.430Z,57.80
2018-11-22T15:03:09.644Z,57.00
2018-11-22T15:06:01.132Z,57.00
2018-11-22T15:08:29.289Z,57.00
2018-11-22T15:10:57.426Z,57.00
2018-11-22T15:13:25.633Z,57.80
2018-11-22T15:15:53.763Z,57.90
2018-11-22T15:18:22.590Z,57.60
2018-11-22T15:20:50.859Z,58.00
2018-11-22T15:23:19.056Z,58.60
2018-11-22T15:25:47.239Z,58.20
2018-11-22T15:28:15.502Z,58.40
2018-11-22T15:30:43.738Z,58.50
2018-11-22T15:33:11.902Z,58.60
2018-11-22T15:35:42.802Z,58.80
2018-11-22T15:38:11.303Z,58.60
2018-11-22T15:40:40.212Z,58.80
2018-11-22T15:43:08.388Z,59.00
2018-11-22T15:45:36.632Z,59.20
2018-11-22T15:48:06.210Z,59.20
2018-11-22T15:50:34.297Z,59.40
2018-11-22T15:53:02.449Z,59.50
2018-11-22T15:55:30.690Z,59.40
2018-11-22T15:57:59.769Z,59.60
2018-11-22T16:00:29.418Z,59.50
2018-11-22T16:02:58.002Z,59.60
2018-11-22T16:05:27.025Z,59.50
2018-11-22T16:07:55.180Z,59.70
2018-11-22T16:10:26.956Z,59.10
2018-11-22T16:12:56.108Z,59.40
2018-11-22T16:15:32.115Z,59.10
2018-11-22T16:18:00.283Z,59.00
2018-11-22T16:20:28.442Z,58.90
2018-11-22T16:22:56.690Z,59.10
2018-11-22T16:25:25.476Z,59.30
2018-11-22T16:27:53.642Z,59.40
2018-11-22T16:30:23.322Z,59.70
2018-11-22T16:32:51.785Z,60.10
2018-11-22T16:35:20.805Z,59.10
2018-11-22T16:37:48.912Z,59.40
2018-11-22T16:40:21.491Z,59.40
2018-11-22T16:42:50.708Z,59.60
2018-11-22T16:45:24.337Z,59.70
2018-11-22T16:47:52.447Z,59.90
2018-11-22T16:50:23.052Z,60.00
2018-11-22T16:52:51.460Z,60.40
2018-11-22T16:55:20.299Z,60.20
2018-11-22T16:57:49.389Z,60.60
2018-11-22T17:00:21.692Z,60.60
2018-11-22T17:02:55.668Z,61.00
2018-11-22T17:05:29.309Z,61.00
2018-11-22T17:07:57.859Z,61.40
2018-11-22T17:10:27.200Z,61.40
2018-11-22T17:12:56.980Z,61.20
2018-11-22T17:15:27.556Z,61.40
2018-11-22T17:17:56.288Z,61.80
2018-11-22T17:20:25.181Z,61.80
2018-11-22T17:22:53.761Z,61.80
2018-11-22T17:25:23.252Z,61.70
2018-11-22T17:27:53.695Z,61.70
2018-11-22T17:30:23.838Z,62.20
2018-11-22T17:32:52.043Z,61.90
2018-11-22T17:35:24.256Z,62.20
2018-11-22T17:37:53.595Z,62.40
2018-11-22T17:40:23.207Z,62.30
2018-11-22T17:42:51.463Z,62.60
2018-11-22T17:45:21.556Z,62.90
2018-11-22T17:47:49.862Z,63.20
2018-11-22T17:50:18.273Z,63.40
2018-11-22T17:52:46.490Z,63.50
2018-11-22T17:55:18.857Z,63.60
2018-11-22T17:57:47.287Z,63.60
2018-11-22T18:00:23.187Z,63.80
2018-11-22T18:02:52.418Z,64.30
2018-11-22T18:05:43.974Z,64.20
2018-11-22T18:08:12.197Z,64.60
2018-11-22T18:10:44.089Z,64.40
2018-11-22T18:13:12.855Z,65.60
2018-11-22T18:15:49.392Z,65.30
2018-11-22T18:18:19.992Z,65.10
2018-11-22T18:20:48.208Z,64.80
2018-11-22T18:23:16.358Z,65.40
2018-11-22T18:25:48.844Z,65.40
2018-11-22T18:28:12.942Z,65.80
2018-11-22T18:30:41.067Z,66.00
2018-11-22T18:33:09.366Z,66.00
2018-11-22T18:35:42.594Z,66.00
2018-11-22T18:38:10.768Z,66.80
2018-11-22T18:40:40.498Z,66.80
2018-11-22T18:43:08.683Z,66.00
2018-11-22T18:45:43.301Z,66.70
2018-11-22T18:48:13.053Z,66.60
2018-11-22T18:50:41.579Z,66.70
2018-11-22T18:53:09.919Z,66.70
2018-11-22T18:55:38.052Z,67.30
2018-11-22T18:58:06.701Z,66.70
2018-11-22T19:00:36.893Z,66.60
2018-11-22T19:03:09.242Z,66.60
2018-11-22T19:05:37.558Z,66.60
2018-11-22T19:08:07.675Z,66.60
2018-11-22T19:10:37.428Z,66.60
2018-11-22T19:13:06.978Z,66.60
2018-11-22T19:15:39.493Z,66.50
2018-11-22T19:18:09.237Z,66.50
2018-11-22T19:20:38.811Z,66.40
2018-11-22T19:23:08.491Z,66.50
2018-11-22T19:28:36.881Z,67.10
2018-11-22T19:31:05.536Z,67.80
2018-11-22T19:33:33.700Z,67.80
2018-11-22T19:36:02.698Z,68.20
2018-11-22T19:38:30.849Z,68.10
2018-11-22T19:40:58.996Z,67.70
2018-11-22T19:43:27.172Z,68.50
2018-11-22T19:45:55.481Z,67.80
2018-11-22T19:48:23.643Z,68.00
2018-11-22T19:50:51.830Z,68.80
2018-11-22T19:53:20.379Z,70.00
2018-11-22T19:55:48.683Z,71.10
2018-11-22T19:58:17.498Z,70.00
2018-11-22T20:00:45.668Z,70.50
2018-11-22T20:03:13.831Z,70.00
2018-11-22T20:05:51.513Z,70.00
2018-11-22T20:08:19.891Z,70.00
2018-11-22T20:10:48.641Z,70.80
2018-11-22T20:13:16.806Z,70.80
2018-11-22T20:15:45.630Z,72.20
2018-11-22T20:18:13.846Z,71.50
2018-11-22T20:20:43.046Z,70.50
2018-11-22T20:23:10.304Z,71.30
2018-11-22T20:25:43.488Z,71.10
2018-11-22T20:28:11.719Z,70.70
2018-11-22T20:30:41.875Z,71.10
2018-11-22T20:33:10.318Z,71.30
2018-11-22T20:36:07.803Z,71.60
2018-11-22T20:38:35.946Z,71.40
2018-11-22T20:41:11.129Z,71.60
2018-11-22T20:43:39.522Z,72.20
2018-11-22T20:46:12.832Z,71.40
2018-11-22T20:48:41.032Z,71.90
2018-11-22T20:51:09.177Z,72.70
2018-11-22T20:53:37.430Z,73.40
2018-11-22T20:56:05.774Z,73.10
2018-11-22T20:58:34.066Z,73.30
2018-11-22T21:01:02.269Z,72.60
2018-11-22T21:03:30.476Z,75.10
2018-11-22T21:05:59.921Z,73.00
2018-11-22T21:08:28.111Z,73.70
2018-11-22T21:10:56.891Z,72.90
2018-11-22T21:13:25.101Z,73.70
2018-11-22T21:15:53.375Z,73.60
2018-11-22T21:18:21.508Z,73.70
2018-11-22T21:20:49.661Z,73.70
2018-11-22T21:23:18.129Z,74.90
2018-11-22T21:25:55.860Z,74.30
2018-11-22T21:28:24.053Z,74.10
2018-11-22T21:30:52.338Z,73.80
2018-11-22T21:33:20.539Z,73.50
2018-11-22T21:35:48.739Z,73.30
2018-11-22T21:38:16.880Z,74.20
2018-11-22T21:40:45.059Z,74.60
2018-11-22T21:43:13.258Z,74.60
2018-11-22T21:45:41.707Z,74.40
2018-11-22T21:48:09.864Z,74.50
2018-11-22T21:50:37.979Z,72.70
2018-11-22T21:53:06.227Z,74.50
2018-11-22T21:55:35.471Z,73.50
2018-11-22T21:58:04.699Z,74.10
2018-11-22T22:00:41.837Z,74.40
2018-11-22T22:03:11.400Z,74.40
2018-11-22T22:05:40.099Z,74.40
2018-11-22T22:08:08.390Z,74.40
2018-11-22T22:10:36.585Z,73.70
2018-11-22T22:13:05.211Z,74.30
2018-11-22T22:15:34.453Z,74.30
2018-11-22T22:18:02.713Z,74.30
2018-11-22T22:20:32.280Z,74.20
2018-11-22T22:23:02.050Z,74.80
2018-11-22T22:25:30.397Z,74.20
2018-11-22T22:27:58.971Z,74.10
2018-11-22T22:30:31.955Z,74.10
2018-11-22T22:33:01.835Z,74.50
2018-11-22T22:35:38.010Z,75.00
2018-11-22T22:38:06.257Z,76.10
2018-11-22T22:40:34.335Z,75.50
2018-11-22T22:43:02.847Z,75.50
2018-11-22T22:45:32.172Z,75.90
2018-11-22T22:48:00.327Z,75.40
2018-11-22T22:50:29.288Z,75.20
2018-11-22T22:52:58.744Z,74.90
2018-11-22T22:55:56.427Z,75.20
2018-11-22T22:58:24.659Z,73.90
2018-11-22T23:00:53.486Z,74.70
2018-11-22T23:03:21.651Z,73.90
2018-11-22T23:05:49.947Z,74.50
2018-11-22T23:08:18.077Z,73.90
2018-11-22T23:10:46.871Z,74.10
2018-11-22T23:13:15.057Z,74.80
2018-11-22T23:15:43.499Z,76.10
2018-11-22T23:18:11.693Z,75.90
2018-11-22T23:20:39.858Z,77.50
2018-11-22T23:23:08.050Z,75.50
2018-11-22T23:25:36.188Z,76.70
2018-11-22T23:28:04.426Z,75.50
2018-11-22T23:30:33.675Z,75.60
2018-11-22T23:33:03.213Z,75.10
2018-11-22T23:35:31.507Z,75.40
2018-11-22T23:37:59.693Z,76.20
2018-11-22T23:40:28.961Z,76.30
2018-11-22T23:42:57.157Z,77.10
2018-11-22T23:45:26.780Z,76.00
2018-11-22T23:47:54.961Z,76.00
2018-11-22T23:50:24.561Z,78.00
2018-11-22T23:52:53.920Z,78.70
2018-11-22T23:55:35.999Z,76.90
2018-11-22T23:58:04.147Z,77.20
